sensor_id;sensor_type;location;lat;lon;timestamp;pressure;altitude;pressure_sealevel;temperature;humidity
44825;BME280;30542;47.928;2.138;2023-03-01T00:02:57;101296.22;;;19.26;38.51
44825;BME280;30542;47.928;2.138;2023-03-01T00:07:58;101296.47;;;19.25;38.67
44825;BME280;30542;47.928;2.138;2023-03-01T00:12:58;101301.00;;;19.24;38.64
44825;BME280;30542;47.928;2.138;2023-03-01T00:17:58;101298.53;;;19.23;38.70
44825;BME280;30542;47.928;2.138;2023-03-01T00:22:59;101301.47;;;19.21;38.83
44825;BME280;30542;47.928;2.138;2023-03-01T00:27:59;101300.06;;;19.19;38.46
44825;BME280;30542;47.928;2.138;2023-03-01T00:32:59;101304.84;;;19.17;38.80
44825;BME280;30542;47.928;2.138;2023-03-01T00:38:00;101288.47;;;19.13;38.36
44825;BME280;30542;47.928;2.138;2023-03-01T00:43:01;101283.34;;;19.11;38.42
44825;BME280;30542;47.928;2.138;2023-03-01T00:48:02;101274.31;;;19.01;38.25
44825;BME280;30542;47.928;2.138;2023-03-01T00:53:02;101270.03;;;19.00;38.34
44825;BME280;30542;47.928;2.138;2023-03-01T00:58:05;101282.31;;;19.01;38.60
44825;BME280;30542;47.928;2.138;2023-03-01T01:03:05;101279.31;;;18.97;38.28
44825;BME280;30542;47.928;2.138;2023-03-01T01:08:05;101277.91;;;18.95;38.18
44825;BME280;30542;47.928;2.138;2023-03-01T01:13:06;101266.31;;;18.89;38.57
44825;BME280;30542;47.928;2.138;2023-03-01T01:18:06;101269.22;;;18.87;38.14
44825;BME280;30542;47.928;2.138;2023-03-01T01:23:07;101259.25;;;18.83;38.38
44825;BME280;30542;47.928;2.138;2023-03-01T01:28:07;101268.06;;;18.83;38.09
44825;BME280;30542;47.928;2.138;2023-03-01T01:33:08;101262.38;;;18.80;38.17
44825;BME280;30542;47.928;2.138;2023-03-01T01:38:08;101251.34;;;18.76;38.18
44825;BME280;30542;47.928;2.138;2023-03-01T01:43:18;101257.13;;;18.73;38.35
44825;BME280;30542;47.928;2.138;2023-03-01T01:48:22;101246.72;;;18.72;38.49
44825;BME280;30542;47.928;2.138;2023-03-01T01:53:24;101244.81;;;18.60;38.10
44825;BME280;30542;47.928;2.138;2023-03-01T01:58:27;101256.66;;;18.64;38.09
44825;BME280;30542;47.928;2.138;2023-03-01T02:03:31;101248.06;;;18.62;37.91
44825;BME280;30542;47.928;2.138;2023-03-01T02:08:40;101240.41;;;18.54;38.04
44825;BME280;30542;47.928;2.138;2023-03-01T02:13:42;101231.00;;;18.52;37.96
44825;BME280;30542;47.928;2.138;2023-03-01T02:18:43;101226.84;;;18.56;38.24
44825;BME280;30542;47.928;2.138;2023-03-01T02:23:45;101229.84;;;18.59;38.35
44825;BME280;30542;47.928;2.138;2023-03-01T02:28:46;101219.53;;;18.63;38.37
44825;BME280;30542;47.928;2.138;2023-03-01T02:33:47;101222.56;;;18.67;38.29
44825;BME280;30542;47.928;2.138;2023-03-01T02:38:54;101211.41;;;18.70;38.51
44825;BME280;30542;47.928;2.138;2023-03-01T02:43:56;101216.31;;;18.73;38.25
44825;BME280;30542;47.928;2.138;2023-03-01T02:48:58;101207.84;;;18.76;38.21
44825;BME280;30542;47.928;2.138;2023-03-01T02:54:31;101204.72;;;18.79;37.97
44825;BME280;30542;47.928;2.138;2023-03-01T02:59:36;101193.53;;;18.82;38.02
44825;BME280;30542;47.928;2.138;2023-03-01T03:04:39;101186.47;;;18.87;38.20
44825;BME280;30542;47.928;2.138;2023-03-01T03:09:39;101191.75;;;18.99;37.55
44825;BME280;30542;47.928;2.138;2023-03-01T03:14:40;101188.72;;;19.07;37.30
44825;BME280;30542;47.928;2.138;2023-03-01T03:19:40;101193.22;;;19.19;37.24
44825;BME280;30542;47.928;2.138;2023-03-01T03:24:40;101173.59;;;19.25;37.38
44825;BME280;30542;47.928;2.138;2023-03-01T03:29:41;101186.09;;;19.36;37.11
44825;BME280;30542;47.928;2.138;2023-03-01T03:34:41;101176.66;;;19.45;36.83
44825;BME280;30542;47.928;2.138;2023-03-01T03:39:42;101169.28;;;19.52;36.88
44825;BME280;30542;47.928;2.138;2023-03-01T03:44:42;101165.91;;;19.57;36.96
44825;BME280;30542;47.928;2.138;2023-03-01T03:49:42;101165.06;;;19.68;36.17
44825;BME280;30542;47.928;2.138;2023-03-01T03:54:43;101168.63;;;19.74;36.19
44825;BME280;30542;47.928;2.138;2023-03-01T03:59:43;101162.81;;;19.77;36.12
44825;BME280;30542;47.928;2.138;2023-03-01T04:04:44;101160.78;;;19.84;36.11
44825;BME280;30542;47.928;2.138;2023-03-01T04:09:44;101163.53;;;19.89;36.22
44825;BME280;30542;47.928;2.138;2023-03-01T04:14:44;101166.56;;;19.93;35.84
44825;BME280;30542;47.928;2.138;2023-03-01T04:19:45;101167.09;;;19.95;35.95
44825;BME280;30542;47.928;2.138;2023-03-01T04:24:48;101169.06;;;19.99;35.75
44825;BME280;30542;47.928;2.138;2023-03-01T04:29:49;101177.19;;;20.04;35.56
44825;BME280;30542;47.928;2.138;2023-03-01T04:34:49;101171.56;;;20.06;35.83
44825;BME280;30542;47.928;2.138;2023-03-01T04:39:49;101180.41;;;20.06;35.71
44825;BME280;30542;47.928;2.138;2023-03-01T04:44:50;101169.22;;;20.09;35.64
44825;BME280;30542;47.928;2.138;2023-03-01T04:49:51;101159.09;;;20.11;35.55
44825;BME280;30542;47.928;2.138;2023-03-01T04:54:51;101163.13;;;20.14;35.47
44825;BME280;30542;47.928;2.138;2023-03-01T04:59:52;101153.84;;;20.17;35.43
44825;BME280;30542;47.928;2.138;2023-03-01T05:04:52;101154.38;;;20.19;35.42
44825;BME280;30542;47.928;2.138;2023-03-01T05:09:52;101156.56;;;20.22;35.57
44825;BME280;30542;47.928;2.138;2023-03-01T05:14:53;101140.19;;;20.18;35.49
44825;BME280;30542;47.928;2.138;2023-03-01T05:19:53;101148.63;;;20.27;35.54
44825;BME280;30542;47.928;2.138;2023-03-01T05:24:55;101141.41;;;20.27;35.44
44825;BME280;30542;47.928;2.138;2023-03-01T05:29:56;101138.50;;;20.29;35.33
44825;BME280;30542;47.928;2.138;2023-03-01T05:34:56;101127.22;;;20.27;35.23
44825;BME280;30542;47.928;2.138;2023-03-01T05:39:57;101128.84;;;20.28;35.36
44825;BME280;30542;47.928;2.138;2023-03-01T05:44:57;101132.63;;;20.32;35.30
44825;BME280;30542;47.928;2.138;2023-03-01T05:49:57;101126.56;;;20.36;35.43
44825;BME280;30542;47.928;2.138;2023-03-01T05:54:58;101128.41;;;20.36;35.22
44825;BME280;30542;47.928;2.138;2023-03-01T05:59:58;101109.88;;;20.29;35.50
44825;BME280;30542;47.928;2.138;2023-03-01T06:04:59;101122.25;;;20.35;35.27
44825;BME280;30542;47.928;2.138;2023-03-01T06:09:59;101119.59;;;20.35;35.20
44825;BME280;30542;47.928;2.138;2023-03-01T06:15:00;101111.31;;;20.37;35.73
44825;BME280;30542;47.928;2.138;2023-03-01T06:20:01;101103.84;;;20.39;36.18
44825;BME280;30542;47.928;2.138;2023-03-01T06:25:01;101100.09;;;20.40;36.43
44825;BME280;30542;47.928;2.138;2023-03-01T06:30:02;101099.06;;;20.41;36.83
44825;BME280;30542;47.928;2.138;2023-03-01T06:35:04;101096.13;;;20.43;36.72
44825;BME280;30542;47.928;2.138;2023-03-01T06:40:05;101093.47;;;20.43;36.77
44825;BME280;30542;47.928;2.138;2023-03-01T06:45:11;101089.19;;;20.42;36.73
44825;BME280;30542;47.928;2.138;2023-03-01T06:50:12;101093.72;;;20.41;36.92
44825;BME280;30542;47.928;2.138;2023-03-01T06:55:13;101091.84;;;20.42;36.83
44825;BME280;30542;47.928;2.138;2023-03-01T07:00:14;101077.50;;;20.31;36.76
44825;BME280;30542;47.928;2.138;2023-03-01T07:05:14;101094.03;;;20.45;36.56
44825;BME280;30542;47.928;2.138;2023-03-01T07:10:15;101091.69;;;20.48;36.86
44825;BME280;30542;47.928;2.138;2023-03-01T07:15:16;101076.59;;;20.42;36.80
44825;BME280;30542;47.928;2.138;2023-03-01T07:20:19;101090.28;;;20.63;37.21
44825;BME280;30542;47.928;2.138;2023-03-01T07:25:25;101060.59;;;20.47;37.32
44825;BME280;30542;47.928;2.138;2023-03-01T07:30:25;101089.41;;;20.79;37.57
44825;BME280;30542;47.928;2.138;2023-03-01T07:35:28;101087.03;;;20.82;37.75
44825;BME280;30542;47.928;2.138;2023-03-01T07:40:28;101074.75;;;20.87;37.37
44825;BME280;30542;47.928;2.138;2023-03-01T07:45:29;101080.16;;;20.92;37.50
44825;BME280;30542;47.928;2.138;2023-03-01T07:50:29;101064.91;;;20.92;37.57
44825;BME280;30542;47.928;2.138;2023-03-01T07:55:30;101070.31;;;20.97;37.88
44825;BME280;30542;47.928;2.138;2023-03-01T08:00:31;101076.03;;;21.06;37.37
44825;BME280;30542;47.928;2.138;2023-03-01T08:05:32;101067.75;;;21.07;36.39
44825;BME280;30542;47.928;2.138;2023-03-01T08:10:32;101060.75;;;21.06;35.65
44825;BME280;30542;47.928;2.138;2023-03-01T08:15:32;101072.31;;;21.07;34.14
44825;BME280;30542;47.928;2.138;2023-03-01T08:20:33;101078.97;;;21.04;37.64
44825;BME280;30542;47.928;2.138;2023-03-01T08:25:33;101080.34;;;20.85;37.03
44825;BME280;30542;47.928;2.138;2023-03-01T08:30:34;101059.22;;;20.62;33.73
44825;BME280;30542;47.928;2.138;2023-03-01T08:35:34;101079.69;;;20.51;30.37
44825;BME280;30542;47.928;2.138;2023-03-01T08:40:34;101075.78;;;20.42;31.21
44825;BME280;30542;47.928;2.138;2023-03-01T08:45:35;101075.13;;;20.51;31.18
44825;BME280;30542;47.928;2.138;2023-03-01T08:50:35;101071.28;;;20.64;32.04
44825;BME280;30542;47.928;2.138;2023-03-01T08:55:35;101063.44;;;20.79;32.94
44825;BME280;30542;47.928;2.138;2023-03-01T09:00:36;101047.69;;;20.83;33.59
44825;BME280;30542;47.928;2.138;2023-03-01T09:05:36;101067.75;;;21.07;33.75
44825;BME280;30542;47.928;2.138;2023-03-01T09:10:38;101061.69;;;21.17;33.99
44825;BME280;30542;47.928;2.138;2023-03-01T09:15:39;101056.16;;;21.29;34.36
44825;BME280;30542;47.928;2.138;2023-03-01T09:20:39;101052.78;;;21.39;34.73
44825;BME280;30542;47.928;2.138;2023-03-01T09:25:40;101059.75;;;21.40;34.91
44825;BME280;30542;47.928;2.138;2023-03-01T09:30:40;101041.22;;;21.33;36.45
44825;BME280;30542;47.928;2.138;2023-03-01T09:35:40;101037.41;;;21.29;36.47
44825;BME280;30542;47.928;2.138;2023-03-01T09:40:46;101026.13;;;21.27;36.16
44825;BME280;30542;47.928;2.138;2023-03-01T09:45:48;101027.03;;;21.32;35.74
44825;BME280;30542;47.928;2.138;2023-03-01T09:50:50;101022.78;;;21.37;35.57
44825;BME280;30542;47.928;2.138;2023-03-01T09:56:00;101007.00;;;21.40;35.43
44825;BME280;30542;47.928;2.138;2023-03-01T10:01:30;101001.09;;;21.43;35.67
44825;BME280;30542;47.928;2.138;2023-03-01T10:06:32;100983.41;;;21.42;35.69
44825;BME280;30542;47.928;2.138;2023-03-01T10:11:45;100979.94;;;21.47;36.00
44825;BME280;30542;47.928;2.138;2023-03-01T10:21:50;100981.34;;;21.54;36.43
44825;BME280;30542;47.928;2.138;2023-03-01T10:26:56;100978.16;;;21.57;36.31
44825;BME280;30542;47.928;2.138;2023-03-01T10:31:57;100966.38;;;21.58;36.22
44825;BME280;30542;47.928;2.138;2023-03-01T10:37:08;100970.66;;;21.59;36.36
44825;BME280;30542;47.928;2.138;2023-03-01T10:42:21;100959.41;;;21.63;36.34
44825;BME280;30542;47.928;2.138;2023-03-01T10:47:25;100957.81;;;21.62;36.22
44825;BME280;30542;47.928;2.138;2023-03-01T10:52:35;100957.28;;;21.65;36.11
44825;BME280;30542;47.928;2.138;2023-03-01T10:57:38;100940.34;;;21.54;35.63
44825;BME280;30542;47.928;2.138;2023-03-01T11:02:40;100947.09;;;21.62;35.63
44825;BME280;30542;47.928;2.138;2023-03-01T11:12:52;100932.06;;;21.60;35.95
44825;BME280;30542;47.928;2.138;2023-03-01T11:17:55;100919.72;;;21.59;36.02
44825;BME280;30542;47.928;2.138;2023-03-01T11:22:59;100921.31;;;21.60;35.93
44825;BME280;30542;47.928;2.138;2023-03-01T11:28:04;100912.75;;;21.58;35.82
44825;BME280;30542;47.928;2.138;2023-03-01T11:38:22;100905.78;;;21.57;36.09
44825;BME280;30542;47.928;2.138;2023-03-01T11:48:56;100882.16;;;21.49;36.13
44825;BME280;30542;47.928;2.138;2023-03-01T12:10:27;100870.06;;;21.47;36.38
44825;BME280;30542;47.928;2.138;2023-03-01T12:15:39;100866.06;;;21.44;36.28
44825;BME280;30542;47.928;2.138;2023-03-01T12:26:36;100844.31;;;21.41;36.31
44825;BME280;30542;47.928;2.138;2023-03-01T12:47:48;100808.13;;;21.38;36.78
44825;BME280;30542;47.928;2.138;2023-03-01T12:52:56;100793.66;;;21.39;36.65
44825;BME280;30542;47.928;2.138;2023-03-01T12:58:00;100782.13;;;21.39;36.65
44825;BME280;30542;47.928;2.138;2023-03-01T13:08:39;100767.03;;;21.27;36.42
44825;BME280;30542;47.928;2.138;2023-03-01T13:13:43;100775.94;;;21.33;36.55
44825;BME280;30542;47.928;2.138;2023-03-01T13:18:43;100770.53;;;21.28;36.58
44825;BME280;30542;47.928;2.138;2023-03-01T13:23:47;100767.03;;;21.27;36.49
44825;BME280;30542;47.928;2.138;2023-03-01T13:28:49;100754.19;;;21.24;36.65
44825;BME280;30542;47.928;2.138;2023-03-01T13:33:57;100743.44;;;21.19;37.22
44825;BME280;30542;47.928;2.138;2023-03-01T13:39:01;100747.97;;;21.19;36.70
44825;BME280;30542;47.928;2.138;2023-03-01T13:44:01;100719.00;;;21.05;37.36
44825;BME280;30542;47.928;2.138;2023-03-01T13:49:02;100691.06;;;20.86;36.82
44825;BME280;30542;47.928;2.138;2023-03-01T13:54:03;100748.53;;;21.16;36.56
44825;BME280;30542;47.928;2.138;2023-03-01T13:59:06;100722.47;;;21.06;37.01
44825;BME280;30542;47.928;2.138;2023-03-01T14:04:21;100703.41;;;20.97;36.79
44825;BME280;30542;47.928;2.138;2023-03-01T14:09:24;100710.97;;;21.05;36.73
44825;BME280;30542;47.928;2.138;2023-03-01T14:14:48;100731.31;;;21.06;36.40
44825;BME280;30542;47.928;2.138;2023-03-01T14:19:55;100719.25;;;21.04;36.20
44825;BME280;30542;47.928;2.138;2023-03-01T14:24:59;100720.59;;;21.01;36.22
44825;BME280;30542;47.928;2.138;2023-03-01T14:30:03;100708.25;;;21.00;36.34
44825;BME280;30542;47.928;2.138;2023-03-01T14:35:20;100713.34;;;21.02;36.26
44825;BME280;30542;47.928;2.138;2023-03-01T14:40:33;100711.75;;;21.01;36.35
44825;BME280;30542;47.928;2.138;2023-03-01T14:45:35;100687.06;;;20.94;36.54
44825;BME280;30542;47.928;2.138;2023-03-01T14:50:41;100697.81;;;20.99;36.63
44825;BME280;30542;47.928;2.138;2023-03-01T14:55:45;100693.28;;;20.99;36.86
44825;BME280;30542;47.928;2.138;2023-03-01T15:01:05;100701.59;;;21.03;37.01
44825;BME280;30542;47.928;2.138;2023-03-01T15:06:07;100696.47;;;21.01;36.99
44825;BME280;30542;47.928;2.138;2023-03-01T15:11:19;100684.69;;;21.02;37.31
44825;BME280;30542;47.928;2.138;2023-03-01T15:16:31;100687.94;;;21.04;37.29
44825;BME280;30542;47.928;2.138;2023-03-01T15:21:37;100693.28;;;21.04;37.37
44825;BME280;30542;47.928;2.138;2023-03-01T15:26:43;100668.59;;;20.92;35.98
44825;BME280;30542;47.928;2.138;2023-03-01T15:31:57;100674.75;;;20.93;35.88
44825;BME280;30542;47.928;2.138;2023-03-01T15:37:01;100654.63;;;20.85;36.24
44825;BME280;30542;47.928;2.138;2023-03-01T15:42:05;100653.59;;;20.86;36.40
44825;BME280;30542;47.928;2.138;2023-03-01T15:47:22;100652.50;;;20.82;36.46
44825;BME280;30542;47.928;2.138;2023-03-01T15:52:26;100661.03;;;20.74;36.72
44825;BME280;30542;47.928;2.138;2023-03-01T15:57:31;100670.91;;;20.73;36.85
44825;BME280;30542;47.928;2.138;2023-03-01T16:02:31;100666.63;;;20.72;37.03
44825;BME280;30542;47.928;2.138;2023-03-01T16:07:31;100660.75;;;20.70;37.25
44825;BME280;30542;47.928;2.138;2023-03-01T16:12:32;100654.03;;;20.68;37.60
44825;BME280;30542;47.928;2.138;2023-03-01T16:17:32;100663.66;;;20.69;37.75
44825;BME280;30542;47.928;2.138;2023-03-01T16:22:33;100668.47;;;20.67;38.06
44825;BME280;30542;47.928;2.138;2023-03-01T16:27:33;100665.00;;;20.66;38.01
44825;BME280;30542;47.928;2.138;2023-03-01T16:32:38;100663.91;;;20.62;38.12
44825;BME280;30542;47.928;2.138;2023-03-01T16:37:39;100666.28;;;20.58;38.09
44825;BME280;30542;47.928;2.138;2023-03-01T16:42:39;100655.28;;;20.50;38.02
44825;BME280;30542;47.928;2.138;2023-03-01T16:47:40;100661.91;;;20.47;38.20
44825;BME280;30542;47.928;2.138;2023-03-01T16:52:40;100663.25;;;20.45;38.30
44825;BME280;30542;47.928;2.138;2023-03-01T16:57:40;100671.50;;;20.43;38.35
44825;BME280;30542;47.928;2.138;2023-03-01T17:02:41;100669.91;;;20.42;38.44
44825;BME280;30542;47.928;2.138;2023-03-01T17:07:41;100666.66;;;20.40;38.42
44825;BME280;30542;47.928;2.138;2023-03-01T17:12:42;100671.47;;;20.38;38.48
44825;BME280;30542;47.928;2.138;2023-03-01T17:17:43;100664.75;;;20.30;38.21
44825;BME280;30542;47.928;2.138;2023-03-01T17:22:43;100678.91;;;20.31;38.63
44825;BME280;30542;47.928;2.138;2023-03-01T17:27:44;100670.34;;;20.29;38.53
44825;BME280;30542;47.928;2.138;2023-03-01T17:32:44;100697.63;;;20.31;38.48
44825;BME280;30542;47.928;2.138;2023-03-01T17:37:44;100699.25;;;20.32;38.55
44825;BME280;30542;47.928;2.138;2023-03-01T17:42:45;100700.31;;;20.31;38.83
44825;BME280;30542;47.928;2.138;2023-03-01T17:47:45;100707.00;;;20.28;38.81
44825;BME280;30542;47.928;2.138;2023-03-01T17:52:46;100711.03;;;20.31;38.86
44825;BME280;30542;47.928;2.138;2023-03-01T17:57:47;100706.72;;;20.25;38.82
44825;BME280;30542;47.928;2.138;2023-03-01T18:02:47;100708.31;;;20.26;38.63
44825;BME280;30542;47.928;2.138;2023-03-01T18:07:47;100714.75;;;20.30;38.94
44825;BME280;30542;47.928;2.138;2023-03-01T18:12:50;100721.72;;;20.31;38.56
44825;BME280;30542;47.928;2.138;2023-03-01T18:17:50;100727.06;;;20.31;38.15
44825;BME280;30542;47.928;2.138;2023-03-01T18:22:51;100735.66;;;20.33;38.13
44825;BME280;30542;47.928;2.138;2023-03-01T18:27:51;100738.88;;;20.35;38.19
44825;BME280;30542;47.928;2.138;2023-03-01T18:32:52;100736.75;;;20.37;38.54
44825;BME280;30542;47.928;2.138;2023-03-01T18:37:55;100733.03;;;20.38;38.42
44825;BME280;30542;47.928;2.138;2023-03-01T18:42:55;100720.44;;;20.39;38.17
44825;BME280;30542;47.928;2.138;2023-03-01T18:47:55;100736.22;;;20.40;38.26
44825;BME280;30542;47.928;2.138;2023-03-01T18:52:57;100744.81;;;20.42;38.37
44825;BME280;30542;47.928;2.138;2023-03-01T18:57:57;100743.75;;;20.43;38.46
44825;BME280;30542;47.928;2.138;2023-03-01T19:02:59;100750.47;;;20.46;38.76
44825;BME280;30542;47.928;2.138;2023-03-01T19:08:00;100743.50;;;20.45;38.45
44825;BME280;30542;47.928;2.138;2023-03-01T19:13:00;100750.47;;;20.46;38.42
44825;BME280;30542;47.928;2.138;2023-03-01T19:18:01;100736.22;;;20.40;38.72
44825;BME280;30542;47.928;2.138;2023-03-01T19:23:03;100748.59;;;20.46;39.04
44825;BME280;30542;47.928;2.138;2023-03-01T19:28:03;100753.16;;;20.46;38.77
44825;BME280;30542;47.928;2.138;2023-03-01T19:33:04;100745.34;;;20.44;38.94
44825;BME280;30542;47.928;2.138;2023-03-01T19:38:04;100746.72;;;20.47;39.29
44825;BME280;30542;47.928;2.138;2023-03-01T19:43:05;100734.13;;;20.42;39.02
44825;BME280;30542;47.928;2.138;2023-03-01T19:48:05;100728.47;;;20.39;39.02
44825;BME280;30542;47.928;2.138;2023-03-01T19:53:06;100747.06;;;20.50;39.05
44825;BME280;30542;47.928;2.138;2023-03-01T19:58:07;100745.91;;;20.46;39.14
44825;BME280;30542;47.928;2.138;2023-03-01T20:03:09;100746.50;;;20.48;38.86
44825;BME280;30542;47.928;2.138;2023-03-01T20:08:09;100748.16;;;20.54;38.99
44825;BME280;30542;47.928;2.138;2023-03-01T20:13:10;100733.94;;;20.49;38.97
44825;BME280;30542;47.928;2.138;2023-03-01T20:18:10;100731.00;;;20.50;38.77
44825;BME280;30542;47.928;2.138;2023-03-01T20:23:11;100748.97;;;20.55;39.01
44825;BME280;30542;47.928;2.138;2023-03-01T20:28:11;100746.28;;;20.55;38.93
44825;BME280;30542;47.928;2.138;2023-03-01T20:33:11;100750.81;;;20.54;38.75
44825;BME280;30542;47.928;2.138;2023-03-01T20:38:12;100748.66;;;20.51;38.70
44825;BME280;30542;47.928;2.138;2023-03-01T20:43:12;100744.41;;;20.55;38.68
44825;BME280;30542;47.928;2.138;2023-03-01T20:48:12;100748.13;;;20.49;38.76
44825;BME280;30542;47.928;2.138;2023-03-01T20:53:13;100756.72;;;20.56;38.50
44825;BME280;30542;47.928;2.138;2023-03-01T20:58:13;100752.44;;;20.55;38.36
44825;BME280;30542;47.928;2.138;2023-03-01T21:03:14;100742.81;;;20.54;38.50
44825;BME280;30542;47.928;2.138;2023-03-01T21:08:14;100755.09;;;20.55;38.58
44825;BME280;30542;47.928;2.138;2023-03-01T21:13:14;100752.19;;;20.57;38.36
44825;BME280;30542;47.928;2.138;2023-03-01T21:18:15;100755.69;;;20.57;38.31
44825;BME280;30542;47.928;2.138;2023-03-01T21:23:15;100736.69;;;20.59;38.34
44825;BME280;30542;47.928;2.138;2023-03-01T21:28:18;100738.56;;;20.58;38.14
44825;BME280;30542;47.928;2.138;2023-03-01T21:33:18;100726.78;;;20.59;38.28
44825;BME280;30542;47.928;2.138;2023-03-01T21:38:19;100729.72;;;20.58;38.33
44825;BME280;30542;47.928;2.138;2023-03-01T21:43:19;100719.25;;;20.56;38.19
44825;BME280;30542;47.928;2.138;2023-03-01T21:48:20;100710.41;;;20.51;38.22
44825;BME280;30542;47.928;2.138;2023-03-01T21:53:20;100709.03;;;20.48;38.13
44825;BME280;30542;47.928;2.138;2023-03-01T21:58:21;100707.38;;;20.42;38.52
44825;BME280;30542;47.928;2.138;2023-03-01T22:03:22;100701.97;;;20.37;38.41
44825;BME280;30542;47.928;2.138;2023-03-01T22:08:23;100686.41;;;20.29;38.65
44825;BME280;30542;47.928;2.138;2023-03-01T22:13:23;100683.16;;;20.27;38.44
44825;BME280;30542;47.928;2.138;2023-03-01T22:18:24;100686.91;;;20.26;38.56
44825;BME280;30542;47.928;2.138;2023-03-01T22:23:24;100680.44;;;20.17;38.45
44825;BME280;30542;47.928;2.138;2023-03-01T22:28:24;100685.75;;;20.11;38.47
44825;BME280;30542;47.928;2.138;2023-03-01T22:33:25;100682.19;;;20.06;38.77
44825;BME280;30542;47.928;2.138;2023-03-01T22:38:26;100679.00;;;20.04;38.46
44825;BME280;30542;47.928;2.138;2023-03-01T22:43:27;100676.03;;;20.00;38.33
44825;BME280;30542;47.928;2.138;2023-03-01T22:48:28;100674.41;;;19.99;38.68
44825;BME280;30542;47.928;2.138;2023-03-01T22:53:29;100669.56;;;19.96;38.57
44825;BME280;30542;47.928;2.138;2023-03-01T22:58:29;100675.69;;;19.92;38.67
44825;BME280;30542;47.928;2.138;2023-03-01T23:03:29;100659.06;;;19.90;38.72
44825;BME280;30542;47.928;2.138;2023-03-01T23:08:30;100649.13;;;19.80;39.15
44825;BME280;30542;47.928;2.138;2023-03-01T23:13:30;100665.69;;;19.82;39.09
44825;BME280;30542;47.928;2.138;2023-03-01T23:18:31;100665.41;;;19.78;38.71
44825;BME280;30542;47.928;2.138;2023-03-01T23:23:31;100666.16;;;19.74;38.82
44825;BME280;30542;47.928;2.138;2023-03-01T23:28:33;100658.09;;;19.69;39.03
44825;BME280;30542;47.928;2.138;2023-03-01T23:33:34;100644.84;;;19.57;38.82
44825;BME280;30542;47.928;2.138;2023-03-01T23:38:37;100655.31;;;19.58;38.72
44825;BME280;30542;47.928;2.138;2023-03-01T23:43:38;100654.75;;;19.56;38.90
44825;BME280;30542;47.928;2.138;2023-03-01T23:48:40;100655.25;;;19.53;38.47
44825;BME280;30542;47.928;2.138;2023-03-01T23:53:43;100652.50;;;19.48;38.49
44825;BME280;30542;47.928;2.138;2023-03-01T23:58:54;100649.31;;;19.46;38.84
